首页
METAR-TAF:

METAR-TAF

机场 :

戴维斯-蒙森空军基地

图森, 亞利桑那州, 美国

纬度: 32-10N, 经度: 110-53W, 海拔: 824米

当前天气观测

该预报发布于29分钟前的04:58 UTC
风速6节,风向西转西北
温度 24°C
湿度 11%
气压 1011 hPa
能見度: 16.1公里
天空无云

METAR: KDMA 250458Z AUTO 30006KT 10SM CLR 24/M08 A2986 RMK AO2 SLP071 T02411082 FZRANO $

时间: 22:27 (05:27 UTC)

预报

该预报发布于7小时和29分钟前的21:58 UTC
预报有效从24日的 22点(UTC)到 26日的 04点(UTC)
风速10节,风向西转西北
能见度10公里或以上
天空无云
短暂存在
从 24日的 22点(UTC)到 25日的 01点(UTC)
风速12节,风向西转西北,有时为18节阵风
成为
从 25日的 02点(UTC)到 25日的 03点(UTC)
风速6节,风向多变
能见度10公里或以上
天空无云
成为
从 25日的 16点(UTC)到 25日的 17点(UTC)
风速9节,风向西转西北
能见度10公里或以上
天空无云

TAF: KDMA 242158Z 2422/2604 29010KT 9999 SKC QNH2979INS TEMPO 2422/2501 30012G18KT BECMG 2502/2503 VRB06KT 9999 SKC QNH2982INS BECMG 2516/2517 29009KT 9999 SKC QNH2980INS TX33/2521Z TN15/2513Z

超过4000个机场的气象观测和天气预报(METAR&TAF报告)。

可查询的气象台以黄色和红色小点在地图上表示。

将鼠标移到小点上方,可查看气象台名称。

然后点击查看天气观测和预报。

如需切换地图:点击带黑十字的绿色按钮放大地图;点击带横线的绿色按钮缩小地图;或者点击绿色箭头查看邻近地区的地图。


METAR-TAF: